This is the latest recevied weather packets stored in our database for station/object HS3PIK-2. If no packets are shown the sender has not sent any weather packets the latest 10 day(s).
| Time | Temp. | Humidity | Pressure | Rain* | Wind** | Luminosity | Snow |
|---|---|---|---|---|---|---|---|
| 1777979210 | 32.22° C | 66% | - | - | - | 0 W/m² | - |
| 1777978883 | 32.22° C | 67% | - | - | - | 0 W/m² | - |
| 1777978558 | 32.22° C | 69% | - | - | - | 0 W/m² | - |
| 1777978230 | 32.78° C | 68% | - | - | - | 0 W/m² | - |
| 1777977906 | 32.78° C | 67% | - | - | - | 0 W/m² | - |
| 1777977576 | 32.78° C | 65% | - | - | - | 0 W/m² | - |
| 1777977251 | 33.89° C | 62% | - | - | - | 0 W/m² | - |
| 1777976923 | 35° C | 59% | - | - | - | 0 W/m² | - |
| 1777976596 | 35.56° C | 55% | - | - | - | 0 W/m² | - |
| 1777976271 | 35.56° C | 56% | - | - | - | 0 W/m² | - |
| 1777975941 | 35.56° C | 58% | - | - | - | 0 W/m² | - |
| 1777975613 | 35.56° C | 58% | - | - | - | 0 W/m² | - |
| 1777975283 | 36.67° C | 57% | - | - | - | 0 W/m² | - |
| 1777974959 | 37.22° C | 56% | - | - | - | 0 W/m² | - |
| 1777974629 | 38.33° C | 55% | - | - | - | 0 W/m² | - |
| 1777974301 | 39.44° C | 54% | - | - | - | 0 W/m² | - |
| 1777973976 | 39.44° C | 51% | - | - | - | 0 W/m² | - |
| 1777973649 | 40.56° C | 49% | - | - | - | 0 W/m² | - |
| 1777973319 | 40.56° C | 49% | - | - | - | 0 W/m² | - |
| 1777972989 | 39.44° C | 52% | - | - | - | 0 W/m² | - |
| 1777972659 | 38.89° C | 51% | - | - | - | 0 W/m² | - |
| 1777972329 | 38.33° C | 50% | - | - | - | 0 W/m² | - |
| 1777972001 | 38.89° C | 51% | - | - | - | 0 W/m² | - |
| 1777971676 | 37.78° C | 53% | - | - | - | 0 W/m² | - |
| 1777971346 | 37.22° C | 52% | - | - | - | 0 W/m² | - |
* Rain since midnight (hover to see other rain measurements)
** Current wind speed in m/s (hover to see current wind gust speed)